createdAt,value
2022-11-19T00:01:40.480Z,-1.48
2022-11-19T00:04:11.486Z,-1.50
2022-11-19T00:06:42.344Z,-1.53
2022-11-19T00:09:14.507Z,-1.55
2022-11-19T00:12:02.917Z,-1.57
2022-11-19T00:14:34.846Z,-1.58
2022-11-19T00:17:05.868Z,-1.60
2022-11-19T00:19:36.810Z,-1.61
2022-11-19T00:22:07.641Z,-1.60
2022-11-19T00:24:39.655Z,-1.59
2022-11-19T00:27:10.561Z,-1.60
2022-11-19T00:29:41.675Z,-1.59
2022-11-19T00:32:12.442Z,-1.58
2022-11-19T00:34:43.662Z,-1.59
2022-11-19T00:37:14.966Z,-1.61
2022-11-19T00:39:45.747Z,-1.63
2022-11-19T00:42:16.555Z,-1.66
2022-11-19T00:44:47.457Z,-1.68
2022-11-19T00:47:18.638Z,-1.70
2022-11-19T00:49:49.519Z,-1.70
2022-11-19T00:52:20.631Z,-1.70
2022-11-19T00:54:51.467Z,-1.69
2022-11-19T00:57:22.525Z,-1.66
2022-11-19T00:59:53.260Z,-1.65
2022-11-19T01:02:24.111Z,-1.64
2022-11-19T01:04:54.974Z,-1.64
2022-11-19T01:07:25.818Z,-1.63
2022-11-19T01:09:56.609Z,-1.62
2022-11-19T01:12:27.481Z,-1.63
2022-11-19T01:14:58.383Z,-1.64
2022-11-19T01:17:29.508Z,-1.63
2022-11-19T01:20:00.463Z,-1.62
2022-11-19T01:22:31.292Z,-1.62
2022-11-19T01:25:02.082Z,-1.64
2022-11-19T01:27:34.266Z,-1.66
2022-11-19T01:30:05.771Z,-1.67
2022-11-19T01:32:36.758Z,-1.66
2022-11-19T01:35:09.630Z,-1.66
2022-11-19T01:37:40.666Z,-1.65
2022-11-19T01:40:13.872Z,-1.66
2022-11-19T01:42:50.839Z,-1.65
2022-11-19T01:45:33.448Z,-1.64
2022-11-19T01:48:08.771Z,-1.63
2022-11-19T01:50:44.141Z,-1.62
2022-11-19T01:53:15.943Z,-1.61
2022-11-19T01:55:48.046Z,-1.60
2022-11-19T01:58:24.105Z,-1.60
2022-11-19T02:00:54.948Z,-1.61
2022-11-19T02:03:26.752Z,-1.61
2022-11-19T02:05:58.268Z,-1.64
2022-11-19T02:08:44.045Z,-1.63
2022-11-19T02:11:38.605Z,-1.63
2022-11-19T02:14:29.492Z,-1.64
2022-11-19T02:17:10.885Z,-1.65
2022-11-19T02:20:17.095Z,-1.66
2022-11-19T02:23:17.564Z,-1.66
2022-11-19T02:26:15.519Z,-1.68
2022-11-19T02:28:52.629Z,-1.69
2022-11-19T02:31:27.154Z,-1.70
2022-11-19T02:34:02.860Z,-1.69
2022-11-19T02:36:40.473Z,-1.69
2022-11-19T02:39:17.878Z,-1.71
2022-11-19T02:41:54.922Z,-1.72
2022-11-19T02:44:48.849Z,-1.72
2022-11-19T02:47:23.567Z,-1.72
2022-11-19T02:50:00.559Z,-1.72
2022-11-19T02:52:31.588Z,-1.72
2022-11-19T02:55:02.429Z,-1.70
2022-11-19T02:57:33.262Z,-1.69
2022-11-19T03:00:23.993Z,-1.69
2022-11-19T03:03:17.771Z,-1.70
2022-11-19T03:05:53.470Z,-1.69
2022-11-19T03:08:24.654Z,-1.70
2022-11-19T03:11:05.903Z,-1.71
2022-11-19T03:14:06.036Z,-1.71
2022-11-19T03:16:44.101Z,-1.70
2022-11-19T03:19:24.522Z,-1.71
2022-11-19T03:22:00.913Z,-1.71
2022-11-19T03:24:35.401Z,-1.70
2022-11-19T03:27:13.286Z,-1.70
2022-11-19T03:29:49.876Z,-1.68
2022-11-19T03:32:27.229Z,-1.65
2022-11-19T03:35:05.600Z,-1.61
2022-11-19T03:37:39.981Z,-1.56
2022-11-19T03:40:15.696Z,-1.51
2022-11-19T03:42:50.507Z,-1.47
2022-11-19T03:45:26.124Z,-1.43
2022-11-19T03:47:58.533Z,-1.39
2022-11-19T03:50:34.095Z,-1.33
2022-11-19T03:53:05.337Z,-1.27
2022-11-19T03:55:40.809Z,-1.23
2022-11-19T03:58:11.881Z,-1.21
2022-11-19T04:00:42.971Z,-1.17
2022-11-19T04:03:13.913Z,-1.13
2022-11-19T04:05:44.800Z,-1.11
2022-11-19T04:08:15.774Z,-1.07
2022-11-19T04:10:46.769Z,-1.04
2022-11-19T04:13:17.695Z,-1.01
2022-11-19T04:15:48.666Z,-0.99
2022-11-19T04:18:19.571Z,-0.96
2022-11-19T04:20:50.547Z,-0.94
2022-11-19T04:23:21.493Z,-0.93
2022-11-19T04:25:52.417Z,-0.92
2022-11-19T04:28:23.409Z,-0.88
2022-11-19T04:30:54.760Z,-0.86
2022-11-19T04:33:25.762Z,-0.82
2022-11-19T04:35:56.730Z,-0.76
2022-11-19T04:38:27.707Z,-0.74
2022-11-19T04:40:58.675Z,-0.71
2022-11-19T04:43:29.574Z,-0.69
2022-11-19T04:46:00.620Z,-0.68
2022-11-19T04:48:31.527Z,-0.67
2022-11-19T04:51:02.556Z,-0.63
2022-11-19T04:53:33.562Z,-0.61
2022-11-19T04:56:05.052Z,-0.58
2022-11-19T04:58:36.340Z,-0.55
2022-11-19T05:01:07.873Z,-0.53
2022-11-19T05:03:38.941Z,-0.53
2022-11-19T05:06:10.643Z,-0.53
2022-11-19T05:08:41.736Z,-0.52
2022-11-19T05:11:12.773Z,-0.50
2022-11-19T05:13:43.820Z,-0.50
2022-11-19T05:16:14.848Z,-0.50
2022-11-19T05:18:46.099Z,-0.52
2022-11-19T05:21:17.249Z,-0.52
2022-11-19T05:23:48.201Z,-0.51
2022-11-19T05:26:19.121Z,-0.49
2022-11-19T05:28:50.176Z,-0.46
2022-11-19T05:31:21.121Z,-0.46
2022-11-19T05:33:52.098Z,-0.48
2022-11-19T05:36:23.073Z,-0.51
2022-11-19T05:38:54.108Z,-0.52
2022-11-19T05:41:25.123Z,-0.52
2022-11-19T05:43:56.082Z,-0.52
2022-11-19T05:46:27.048Z,-0.50
2022-11-19T05:48:58.190Z,-0.49
2022-11-19T05:51:29.130Z,-0.47
2022-11-19T05:54:00.330Z,-0.46
2022-11-19T05:56:31.465Z,-0.45
2022-11-19T05:59:02.582Z,-0.45
2022-11-19T06:01:33.757Z,-0.45
2022-11-19T06:04:04.744Z,-0.43
2022-11-19T06:06:35.752Z,-0.40
2022-11-19T06:09:07.084Z,-0.40
2022-11-19T06:11:50.692Z,-0.36
2022-11-19T06:14:24.080Z,-0.32
2022-11-19T06:16:57.114Z,-0.30
2022-11-19T06:19:28.742Z,-0.28
2022-11-19T06:21:59.817Z,-0.28
2022-11-19T06:24:31.093Z,-0.27
2022-11-19T06:27:02.678Z,-0.26
2022-11-19T06:29:33.638Z,-0.27
2022-11-19T06:32:04.714Z,-0.25
2022-11-19T06:34:35.682Z,-0.24
2022-11-19T06:37:06.736Z,-0.24
2022-11-19T06:39:37.649Z,-0.21
2022-11-19T06:42:22.497Z,-0.17
2022-11-19T06:44:53.524Z,-0.14
2022-11-19T06:47:24.511Z,-0.10
2022-11-19T06:49:55.464Z,-0.07
2022-11-19T06:52:26.644Z,-0.04
2022-11-19T06:54:57.639Z,-0.03
2022-11-19T06:57:28.673Z,-0.04
2022-11-19T06:59:59.664Z,-0.06
2022-11-19T07:02:30.703Z,-0.05
2022-11-19T07:05:01.812Z,-0.04
2022-11-19T07:07:34.813Z,-0.04
2022-11-19T07:10:07.328Z,-0.02
2022-11-19T07:12:38.463Z,-0.02
2022-11-19T07:15:11.598Z,-0.02
2022-11-19T07:17:42.997Z,-0.02
2022-11-19T07:20:14.850Z,-0.01
2022-11-19T07:22:46.111Z,-0.03
2022-11-19T07:25:17.431Z,-0.02
2022-11-19T07:27:48.405Z,0.01
2022-11-19T07:30:20.297Z,0.02
2022-11-19T07:32:51.307Z,0.04
2022-11-19T07:35:23.029Z,0.05
2022-11-19T07:37:54.108Z,0.02
2022-11-19T07:40:25.812Z,-0.03
2022-11-19T07:42:56.766Z,-0.03
2022-11-19T07:45:28.498Z,-0.02
2022-11-19T07:47:59.465Z,-0.02
2022-11-19T07:50:30.443Z,0.01
2022-11-19T07:53:02.122Z,0.02
2022-11-19T07:55:33.122Z,0.04
2022-11-19T07:58:04.499Z,0.05
2022-11-19T08:00:35.502Z,0.05
2022-11-19T08:03:07.629Z,0.05
2022-11-19T08:05:42.246Z,0.02
2022-11-19T08:08:13.550Z,-0.02
2022-11-19T08:10:44.611Z,0.00
2022-11-19T08:13:15.707Z,0.06
2022-11-19T08:15:47.198Z,0.11
2022-11-19T08:18:18.385Z,0.14
2022-11-19T08:20:49.531Z,0.18
2022-11-19T08:23:23.114Z,0.23
2022-11-19T08:25:54.338Z,0.29
2022-11-19T08:28:25.351Z,0.34
2022-11-19T08:30:56.479Z,0.42
2022-11-19T08:33:27.479Z,0.49
2022-11-19T08:35:58.722Z,0.56
2022-11-19T08:38:32.280Z,0.70
2022-11-19T08:41:23.136Z,0.92
2022-11-19T08:43:54.259Z,1.24
2022-11-19T08:46:25.351Z,1.48
2022-11-19T08:48:56.589Z,1.82
2022-11-19T08:51:27.624Z,2.06
2022-11-19T08:53:58.799Z,2.21
2022-11-19T08:56:29.812Z,2.28
2022-11-19T08:59:03.002Z,2.41
2022-11-19T09:01:34.573Z,2.59
2022-11-19T09:04:06.165Z,2.75
2022-11-19T09:06:37.976Z,2.88
2022-11-19T09:09:09.217Z,2.97
2022-11-19T09:11:42.937Z,3.01
2022-11-19T09:14:14.380Z,3.01
2022-11-19T09:16:45.393Z,2.98
2022-11-19T09:19:16.467Z,2.87
2022-11-19T09:21:47.614Z,2.71
2022-11-19T09:24:18.837Z,2.57
2022-11-19T09:26:52.795Z,2.42
2022-11-19T09:29:24.736Z,2.33
2022-11-19T09:31:55.744Z,2.23
2022-11-19T09:34:26.731Z,2.17
2022-11-19T09:36:58.601Z,2.11
2022-11-19T09:39:29.658Z,2.04
2022-11-19T09:42:12.852Z,2.02
2022-11-19T09:45:04.195Z,2.36
2022-11-19T09:47:49.537Z,3.42
2022-11-19T09:50:23.606Z,4.55
2022-11-19T09:53:02.486Z,5.60
2022-11-19T09:55:36.913Z,6.50
2022-11-19T09:58:13.375Z,7.39
2022-11-19T10:00:46.369Z,7.55
2022-11-19T10:03:21.660Z,7.19
2022-11-19T10:06:00.533Z,6.85
2022-11-19T10:08:45.148Z,6.42
2022-11-19T10:11:32.629Z,5.98
2022-11-19T10:14:12.766Z,5.53
2022-11-19T10:16:56.089Z,5.20
2022-11-19T10:19:40.814Z,5.03
2022-11-19T10:22:16.482Z,4.73
2022-11-19T10:24:55.332Z,4.48
2022-11-19T10:27:33.946Z,4.23
2022-11-19T10:30:13.946Z,4.02
2022-11-19T10:32:51.601Z,3.87
2022-11-19T10:35:28.357Z,3.82
2022-11-19T10:38:02.382Z,3.76
2022-11-19T10:40:41.737Z,3.70
2022-11-19T10:43:23.887Z,3.73
2022-11-19T10:45:56.890Z,3.68
2022-11-19T10:48:38.397Z,3.61
2022-11-19T10:51:19.468Z,3.52
2022-11-19T10:53:51.830Z,3.48
2022-11-19T10:56:28.966Z,3.43
2022-11-19T10:59:07.138Z,3.30
2022-11-19T11:01:42.158Z,3.25
2022-11-19T11:04:19.487Z,3.18
2022-11-19T11:06:55.687Z,3.05
2022-11-19T11:09:35.254Z,2.91
2022-11-19T11:12:32.261Z,2.72
2022-11-19T11:15:18.634Z,2.59
2022-11-19T11:18:01.953Z,2.54
2022-11-19T11:20:34.124Z,2.49
2022-11-19T11:23:11.514Z,2.43
2022-11-19T11:25:52.122Z,2.36
2022-11-19T11:28:26.021Z,2.26
2022-11-19T11:30:59.856Z,2.21
2022-11-19T11:33:35.130Z,2.17
2022-11-19T11:36:11.018Z,2.15
2022-11-19T11:38:49.171Z,2.11
2022-11-19T11:44:27.214Z,2.07
2022-11-19T11:47:02.730Z,2.00
2022-11-19T11:49:37.077Z,1.93
2022-11-19T11:52:19.255Z,1.84
2022-11-19T11:55:06.104Z,1.71
2022-11-19T11:57:51.234Z,1.60
2022-11-19T12:00:40.270Z,1.47
2022-11-19T12:03:13.870Z,1.33
2022-11-19T12:05:55.598Z,1.21
2022-11-19T12:08:44.313Z,1.15
2022-11-19T12:11:21.756Z,1.08
2022-11-19T12:14:00.079Z,1.00
2022-11-19T12:16:41.986Z,0.96
2022-11-19T12:19:25.573Z,0.93
2022-11-19T12:22:04.830Z,0.92
2022-11-19T12:24:54.582Z,0.85
2022-11-19T12:27:35.403Z,0.82
2022-11-19T12:30:13.747Z,0.78
2022-11-19T12:33:01.946Z,0.70
2022-11-19T12:35:51.555Z,0.66
2022-11-19T12:38:40.110Z,0.66
2022-11-19T12:41:30.457Z,0.67
2022-11-19T12:44:03.976Z,0.67
2022-11-19T12:46:48.021Z,0.66
2022-11-19T12:49:41.677Z,0.65
2022-11-19T12:52:31.323Z,0.66
2022-11-19T12:55:11.020Z,0.68
2022-11-19T12:57:53.074Z,0.74
2022-11-19T13:00:26.995Z,0.80
2022-11-19T13:03:15.144Z,0.85
2022-11-19T13:05:52.185Z,0.94
2022-11-19T13:08:29.397Z,0.98
2022-11-19T13:11:11.273Z,1.02
2022-11-19T13:13:46.542Z,1.03
2022-11-19T13:16:20.909Z,1.00
2022-11-19T13:18:55.168Z,0.90
2022-11-19T13:21:33.093Z,0.81
2022-11-19T13:24:14.793Z,0.80
2022-11-19T13:26:46.433Z,0.76
2022-11-19T13:29:31.152Z,0.70
2022-11-19T13:32:10.435Z,0.64
2022-11-19T13:34:49.548Z,0.58
2022-11-19T13:37:23.882Z,0.56
2022-11-19T13:40:01.777Z,0.54
2022-11-19T13:43:17.219Z,0.53
2022-11-19T13:45:45.983Z,0.50
2022-11-19T13:48:26.810Z,0.48
2022-11-19T13:51:02.627Z,0.42
2022-11-19T13:53:39.300Z,0.40
2022-11-19T13:56:15.513Z,0.36
2022-11-19T13:58:50.597Z,0.33
2022-11-19T14:01:40.326Z,0.32
2022-11-19T14:04:28.221Z,0.30
2022-11-19T14:07:20.866Z,0.27
2022-11-19T14:10:04.446Z,0.24
2022-11-19T14:12:53.763Z,0.20
2022-11-19T14:16:04.046Z,0.18
2022-11-19T14:18:57.668Z,0.14
2022-11-19T14:22:09.352Z,0.08
2022-11-19T14:25:14.466Z,0.02
2022-11-19T14:27:46.157Z,-0.03
2022-11-19T14:30:22.234Z,-0.08
2022-11-19T14:32:54.494Z,-0.13
2022-11-19T14:35:45.534Z,-0.18
2022-11-19T14:38:41.893Z,-0.24
2022-11-19T14:41:28.170Z,-0.35
2022-11-19T14:44:14.433Z,-0.45
2022-11-19T14:46:48.809Z,-0.54
2022-11-19T14:49:31.774Z,-0.63
2022-11-19T14:52:04.235Z,-0.74
2022-11-19T14:54:43.812Z,-0.85
2022-11-19T14:57:29.674Z,-0.93
2022-11-19T15:00:05.668Z,-1.01
2022-11-19T15:02:40.812Z,-1.07
2022-11-19T15:05:20.846Z,-1.12
2022-11-19T15:08:12.842Z,-1.16
2022-11-19T15:11:04.304Z,-1.20
2022-11-19T15:13:36.708Z,-1.26
2022-11-19T15:16:13.776Z,-1.29
2022-11-19T15:19:23.912Z,-1.32
2022-11-19T15:22:43.854Z,-1.36
2022-11-19T15:25:31.288Z,-1.40
2022-11-19T15:28:17.943Z,-1.41
2022-11-19T15:31:05.502Z,-1.44
2022-11-19T15:34:11.597Z,-1.46
2022-11-19T15:36:45.990Z,-1.50
2022-11-19T15:39:27.302Z,-1.52
2022-11-19T15:42:02.727Z,-1.56
2022-11-19T15:44:43.998Z,-1.57
2022-11-19T15:47:19.326Z,-1.59
2022-11-19T15:49:50.039Z,-1.59
2022-11-19T15:52:27.257Z,-1.62
2022-11-19T15:55:13.237Z,-1.66
2022-11-19T15:57:47.089Z,-1.67
2022-11-19T16:00:23.119Z,-1.70
2022-11-19T16:02:56.321Z,-1.75
2022-11-19T16:05:30.843Z,-1.77
2022-11-19T16:08:08.624Z,-1.80
2022-11-19T16:10:43.622Z,-1.81
2022-11-19T16:13:43.398Z,-1.80
2022-11-19T16:16:40.679Z,-1.82
2022-11-19T16:19:13.950Z,-1.85
2022-11-19T16:21:48.951Z,-1.87
2022-11-19T16:24:39.891Z,-1.90
2022-11-19T16:27:20.137Z,-1.91
2022-11-19T16:29:52.079Z,-1.93
2022-11-19T16:32:26.545Z,-1.95
2022-11-19T16:35:11.645Z,-1.96
2022-11-19T16:37:43.560Z,-1.95
2022-11-19T16:40:18.684Z,-1.93
2022-11-19T16:42:53.887Z,-1.92
2022-11-19T16:45:27.947Z,-1.95
2022-11-19T16:48:00.905Z,-1.95
2022-11-19T16:50:36.118Z,-1.96
2022-11-19T16:53:09.613Z,-1.98
2022-11-19T16:55:51.410Z,-1.98
2022-11-19T16:58:29.003Z,-1.99
2022-11-19T17:01:01.800Z,-2.01
2022-11-19T17:03:39.708Z,-2.04
2022-11-19T17:06:25.700Z,-2.08
2022-11-19T17:09:01.738Z,-2.13
2022-11-19T17:12:10.532Z,-2.14
2022-11-19T17:14:54.724Z,-2.16
2022-11-19T17:17:44.510Z,-2.17
2022-11-19T17:20:53.014Z,-2.17
2022-11-19T17:23:26.211Z,-2.16
2022-11-19T17:25:59.196Z,-2.16
2022-11-19T17:28:36.522Z,-2.19
2022-11-19T17:31:16.033Z,-2.19
2022-11-19T17:33:56.687Z,-2.18
2022-11-19T17:36:27.991Z,-2.17
2022-11-19T17:38:59.472Z,-2.16
2022-11-19T17:41:50.298Z,-2.16
2022-11-19T17:44:39.264Z,-2.18
2022-11-19T17:47:23.288Z,-2.16
2022-11-19T17:49:55.259Z,-2.15
2022-11-19T17:52:28.192Z,-2.14
2022-11-19T17:55:03.651Z,-2.14
2022-11-19T17:57:34.629Z,-2.15
2022-11-19T18:00:10.728Z,-2.15
2022-11-19T18:02:42.005Z,-2.13
2022-11-19T18:05:20.930Z,-2.14
2022-11-19T18:07:52.348Z,-2.16
2022-11-19T18:10:23.452Z,-2.16
2022-11-19T18:12:54.770Z,-2.15
2022-11-19T18:15:26.072Z,-2.16
2022-11-19T18:17:57.253Z,-2.15
2022-11-19T18:20:28.404Z,-2.14
2022-11-19T18:23:00.180Z,-2.13
2022-11-19T18:25:31.470Z,-2.13
2022-11-19T18:28:02.718Z,-2.13
2022-11-19T18:30:34.127Z,-2.10
2022-11-19T18:33:05.370Z,-2.09
2022-11-19T18:35:36.636Z,-2.09
2022-11-19T18:38:08.546Z,-2.07
2022-11-19T18:40:39.660Z,-2.04
2022-11-19T18:43:29.072Z,-2.02
2022-11-19T18:46:00.696Z,-2.01
2022-11-19T18:48:31.887Z,-2.00
2022-11-19T18:51:02.956Z,-1.98
2022-11-19T18:53:34.144Z,-1.97
2022-11-19T18:56:05.654Z,-1.95
2022-11-19T18:58:37.116Z,-1.96
2022-11-19T19:01:08.297Z,-1.96
2022-11-19T19:03:39.612Z,-1.97
2022-11-19T19:06:12.093Z,-1.96
2022-11-19T19:08:43.270Z,-1.96
2022-11-19T19:11:32.812Z,-1.96
2022-11-19T19:14:04.216Z,-1.98
2022-11-19T19:16:35.576Z,-1.98
2022-11-19T19:19:06.946Z,-1.97
2022-11-19T19:21:38.538Z,-1.97
2022-11-19T19:24:10.646Z,-1.98
2022-11-19T19:26:41.770Z,-2.00
2022-11-19T19:29:13.063Z,-2.03
2022-11-19T19:31:44.314Z,-2.06
2022-11-19T19:34:15.600Z,-2.10
2022-11-19T19:36:52.930Z,-2.14
2022-11-19T19:39:24.913Z,-2.16
2022-11-19T19:41:57.289Z,-2.18
2022-11-19T19:44:28.688Z,-2.20
2022-11-19T19:47:00.962Z,-2.21
2022-11-19T19:49:36.047Z,-2.21
2022-11-19T19:52:10.335Z,-2.20
2022-11-19T19:54:43.067Z,-2.20
2022-11-19T19:57:15.758Z,-2.21
2022-11-19T19:59:47.009Z,-2.22
2022-11-19T20:02:18.482Z,-2.22
2022-11-19T20:04:49.656Z,-2.24
2022-11-19T20:07:21.177Z,-2.26
2022-11-19T20:09:52.349Z,-2.29
2022-11-19T20:12:23.621Z,-2.32
2022-11-19T20:14:55.438Z,-2.36
2022-11-19T20:17:26.885Z,-2.40
2022-11-19T20:19:58.523Z,-2.43
2022-11-19T20:22:30.742Z,-2.47
2022-11-19T20:25:05.505Z,-2.50
2022-11-19T20:27:36.851Z,-2.52
2022-11-19T20:30:10.321Z,-2.53
2022-11-19T20:32:41.545Z,-2.55
2022-11-19T20:35:12.706Z,-2.58
2022-11-19T20:37:43.927Z,-2.58
2022-11-19T20:40:15.357Z,-2.60
2022-11-19T20:43:04.334Z,-2.61
2022-11-19T20:45:35.861Z,-2.64
2022-11-19T20:48:07.573Z,-2.64
2022-11-19T20:50:38.952Z,-2.65
2022-11-19T20:53:10.153Z,-2.64
2022-11-19T20:56:03.817Z,-2.65
2022-11-19T20:58:33.211Z,-2.65
2022-11-19T21:01:06.243Z,-2.63
2022-11-19T21:03:37.633Z,-2.63
2022-11-19T21:06:09.813Z,-2.60
2022-11-19T21:08:40.893Z,-2.57
2022-11-19T21:11:15.674Z,-2.55
2022-11-19T21:13:47.137Z,-2.55
2022-11-19T21:16:21.086Z,-2.56
2022-11-19T21:18:52.914Z,-2.55
2022-11-19T21:21:25.224Z,-2.54
2022-11-19T21:23:56.910Z,-2.54
2022-11-19T21:26:29.346Z,-2.56
2022-11-19T21:29:01.442Z,-2.56
2022-11-19T21:31:41.804Z,-2.55
2022-11-19T21:34:14.497Z,-2.59
2022-11-19T21:36:47.050Z,-2.63
2022-11-19T21:39:19.678Z,-2.65
2022-11-19T21:41:51.379Z,-2.65
2022-11-19T21:44:22.492Z,-2.65
2022-11-19T21:46:53.705Z,-2.66
2022-11-19T21:49:24.773Z,-2.67
2022-11-19T21:51:56.052Z,-2.70
2022-11-19T21:54:27.171Z,-2.69
2022-11-19T21:56:58.474Z,-2.69
2022-11-19T21:59:29.720Z,-2.67
2022-11-19T22:02:00.856Z,-2.65
2022-11-19T22:04:32.120Z,-2.65
2022-11-19T22:07:03.523Z,-2.66
2022-11-19T22:09:34.907Z,-2.67
2022-11-19T22:12:06.550Z,-2.70
2022-11-19T22:14:37.877Z,-2.70
2022-11-19T22:17:09.362Z,-2.69
2022-11-19T22:19:40.407Z,-2.68
2022-11-19T22:22:11.723Z,-2.72
2022-11-19T22:24:43.026Z,-2.75
2022-11-19T22:27:14.684Z,-2.78
2022-11-19T22:29:45.839Z,-2.79
2022-11-19T22:32:17.024Z,-2.81
2022-11-19T22:34:48.261Z,-2.83
2022-11-19T22:37:19.976Z,-2.85
2022-11-19T22:39:51.146Z,-2.87
2022-11-19T22:42:22.334Z,-2.92
2022-11-19T22:44:53.765Z,-2.97
2022-11-19T22:47:24.796Z,-3.00
2022-11-19T22:49:56.060Z,-3.05
2022-11-19T22:52:27.104Z,-3.08
2022-11-19T22:54:58.434Z,-3.10
2022-11-19T22:57:29.764Z,-3.12
2022-11-19T23:00:01.039Z,-3.14
2022-11-19T23:02:32.310Z,-3.14
2022-11-19T23:05:03.500Z,-3.14
2022-11-19T23:07:34.722Z,-3.12
2022-11-19T23:10:07.225Z,-3.11
2022-11-19T23:12:55.888Z,-3.11
2022-11-19T23:15:28.656Z,-3.12
2022-11-19T23:17:59.902Z,-3.12
2022-11-19T23:20:31.403Z,-3.13
2022-11-19T23:23:02.618Z,-3.12
2022-11-19T23:25:33.619Z,-3.11
2022-11-19T23:28:04.918Z,-3.09
2022-11-19T23:30:36.340Z,-3.06
2022-11-19T23:33:07.363Z,-3.07
2022-11-19T23:35:38.646Z,-3.09
2022-11-19T23:38:10.402Z,-3.13
2022-11-19T23:40:41.738Z,-3.17
2022-11-19T23:43:12.828Z,-3.19
2022-11-19T23:45:43.862Z,-3.20
2022-11-19T23:48:17.055Z,-3.21
2022-11-19T23:50:48.025Z,-3.22
2022-11-19T23:53:19.019Z,-3.24
2022-11-19T23:55:50.352Z,-3.25
2022-11-19T23:58:21.395Z,-3.28
